Posterholt, Netherlands
Current Conditions -  °F | °C
As of 1:50 AM on Thursday 18 Dec 2014 (Local Time) from ETNG Reporting Station
Overcast Overcast  
Wind Chill: 52°   Ceiling: 1000
Heat Index: 52°   Visibility: 4mi
Dew Point: 50°   Wind: 8mph
Humidity: 94%   Direction: 220°SW
Pressure: 29.85"   Gusts: NA
Location:  51.12°N, 6.03°E
Report Text: ETNG 180050Z 22007KT 6000 OVC010 11/10 Q1011
Loading
Personal Weather Stations






























Interactive Weather Map New forecast layout! Learn more

10-Day Weather Forecast

Advertisements
Track Severe Weather on mobile